Time;durP1;ratioP1;P1;durP2;ratioP2;P2;SDS_P1;SDS_P2;PMS_P1;PMS_P2;Temp;Humidity;BMP_temperature;BMP_pressure;BME280_temperature;BME280_humidity;BME280_pressure;Samples;Min_cycle;Max_cycle;Signal;HPM_P1;HPM_P2
2023/12/08 00:01:10;;;;;;;3.15;1.40;;;2.80;92.20;;;;;;5053400;28;20048;-76
2023/12/08 00:03:36;;;;;;;2.85;1.40;;;2.80;92.20;;;;;;5053745;28;20068;-76
2023/12/08 00:06:02;;;;;;;3.70;1.70;;;2.80;92.20;;;;;;5020206;28;20121;-75
2023/12/08 00:08:28;;;;;;;3.58;1.50;;;2.80;92.20;;;;;;5104355;28;20039;-75
2023/12/08 00:10:55;;;;;;;2.85;1.70;;;2.80;92.20;;;;;;5112250;28;20046;-75
2023/12/08 00:13:22;;;;;;;2.47;1.60;;;2.80;92.20;;;;;;5094365;28;20093;-75
2023/12/08 00:15:48;;;;;;;2.80;1.30;;;2.70;92.20;;;;;;5060990;28;20047;-74
2023/12/08 00:18:13;;;;;;;2.50;1.42;;;2.80;92.20;;;;;;5060558;28;20040;-74
2023/12/08 00:20:39;;;;;;;1.75;1.08;;;2.80;92.20;;;;;;5060542;28;20039;-75
2023/12/08 00:23:06;;;;;;;3.15;1.52;;;2.90;92.30;;;;;;5115735;28;20479;-74
2023/12/08 00:25:31;;;;;;;2.13;1.20;;;2.80;92.20;;;;;;5116236;28;20085;-75
2023/12/08 00:27:57;;;;;;;1.95;1.08;;;2.80;92.20;;;;;;5116359;28;20059;-74
2023/12/08 00:30:23;;;;;;;2.20;1.27;;;2.80;92.20;;;;;;5097768;28;20044;-75
2023/12/08 00:32:57;;;;;;;2.10;1.10;;;2.80;92.20;;;;;;5116052;28;20047;-76
2023/12/08 00:35:22;;;;;;;1.75;1.05;;;2.80;92.20;;;;;;5053042;28;20044;-75
2023/12/08 00:37:48;;;;;;;2.63;1.42;;;2.80;92.20;;;;;;5036587;28;20156;-74
2023/12/08 00:40:16;;;;;;;1.88;1.20;;;2.80;92.20;;;;;;5053026;28;20090;-75
2023/12/08 00:42:42;;;;;;;1.48;0.90;;;2.80;92.20;;;;;;5036479;28;20041;-74
2023/12/08 00:45:07;;;;;;;2.30;1.10;;;2.90;92.20;;;;;;5053680;28;20421;-74
2023/12/08 00:47:33;;;;;;;1.50;1.10;;;2.90;92.20;;;;;;5036710;28;20126;-74
2023/12/08 00:49:59;;;;;;;2.38;1.25;;;2.90;92.20;;;;;;5036402;28;20076;-74
2023/12/08 00:52:25;;;;;;;2.20;1.10;;;2.90;92.20;;;;;;5036472;28;20045;-75
2023/12/08 00:54:51;;;;;;;2.63;1.27;;;2.90;92.20;;;;;;5036335;28;20420;-74
2023/12/08 00:57:16;;;;;;;2.35;1.08;;;2.90;92.20;;;;;;5036681;28;20041;-74
2023/12/08 00:59:42;;;;;;;3.22;1.40;;;2.90;92.20;;;;;;5036500;28;20044;-75
2023/12/08 01:02:08;;;;;;;2.83;1.40;;;2.90;92.20;;;;;;5053235;28;20064;-75
2023/12/08 01:04:34;;;;;;;2.05;1.20;;;2.90;92.20;;;;;;5052575;28;20538;-75
2023/12/08 01:07:00;;;;;;;2.05;1.13;;;2.90;92.20;;;;;;5103773;28;20376;-74
2023/12/08 01:09:26;;;;;;;2.53;1.50;;;2.90;92.10;;;;;;5115458;28;20047;-74
2023/12/08 01:11:52;;;;;;;2.75;1.30;;;2.90;92.10;;;;;;5097191;28;20097;-75
2023/12/08 01:14:17;;;;;;;1.38;0.93;;;2.90;92.10;;;;;;5096789;28;20040;-74
2023/12/08 01:16:44;;;;;;;1.45;0.90;;;2.90;92.10;;;;;;5114880;28;20043;-74
2023/12/08 01:19:11;;;;;;;1.92;1.13;;;3.00;92.10;;;;;;5096854;28;20063;-75
2023/12/08 01:21:40;;;;;;;1.88;1.20;;;3.10;92.10;;;;;;5115082;28;20054;-75
2023/12/08 01:24:06;;;;;;;1.90;1.08;;;3.00;92.10;;;;;;5055799;28;20471;-75
2023/12/08 01:26:32;;;;;;;2.42;1.13;;;3.00;92.10;;;;;;5056021;28;20178;-74
2023/12/08 01:29:06;;;;;;;1.35;0.82;;;3.00;92.10;;;;;;5055941;28;20028;-75
2023/12/08 01:31:32;;;;;;;1.67;1.10;;;3.00;92.10;;;;;;5056224;28;20049;-72
2023/12/08 01:33:58;;;;;;;1.50;1.08;;;3.00;92.10;;;;;;5071741;28;20035;-75
2023/12/08 01:36:23;;;;;;;1.98;1.15;;;2.90;92.10;;;;;;5072824;28;20488;-74
2023/12/08 01:38:49;;;;;;;1.92;1.05;;;3.00;92.10;;;;;;5055568;28;20075;-73
2023/12/08 01:41:15;;;;;;;2.10;1.10;;;3.00;92.10;;;;;;5055299;28;20128;-74
2023/12/08 01:43:42;;;;;;;1.95;1.00;;;3.00;92.10;;;;;;5055582;28;20038;-74
2023/12/08 01:46:09;;;;;;;1.83;1.00;;;3.00;92.10;;;;;;5072172;28;20072;-74
2023/12/08 01:48:35;;;;;;;2.50;1.08;;;3.10;92.10;;;;;;5055548;28;20075;-73
2023/12/08 01:51:03;;;;;;;2.53;1.27;;;3.00;92.10;;;;;;5071733;28;20037;-74
2023/12/08 01:53:29;;;;;;;1.27;0.95;;;3.00;92.10;;;;;;5072167;28;20041;-74
2023/12/08 01:55:59;;;;;;;1.40;0.80;;;3.00;92.10;;;;;;5073416;28;20036;-74
2023/12/08 01:58:26;;;;;;;1.27;0.90;;;3.00;92.10;;;;;;5095975;28;20036;-74
2023/12/08 02:00:53;;;;;;;1.30;0.85;;;3.00;92.10;;;;;;5095964;28;20051;-74
2023/12/08 02:03:21;;;;;;;1.50;0.90;;;3.00;92.10;;;;;;5114823;28;20047;-75
2023/12/08 02:05:48;;;;;;;1.92;1.08;;;3.00;92.10;;;;;;5096669;28;20043;-74
2023/12/08 02:08:14;;;;;;;1.65;0.80;;;3.10;92.10;;;;;;5095920;28;20096;-74
2023/12/08 02:10:40;;;;;;;3.40;1.40;;;3.00;92.10;;;;;;5095822;28;20051;-75
2023/12/08 02:13:06;;;;;;;2.38;1.20;;;3.10;92.10;;;;;;5096618;28;20085;-75
2023/12/08 02:15:32;;;;;;;1.25;0.80;;;3.10;92.10;;;;;;5114040;28;20036;-74
2023/12/08 02:17:58;;;;;;;1.05;0.90;;;3.20;92.10;;;;;;5096624;28;20375;-75
2023/12/08 02:20:25;;;;;;;1.83;1.00;;;3.10;92.10;;;;;;5114123;28;20478;-74
2023/12/08 02:22:50;;;;;;;2.75;1.05;;;3.10;92.10;;;;;;5062329;28;20048;-74
2023/12/08 02:25:16;;;;;;;2.35;1.02;;;3.10;92.30;;;;;;5096360;28;20039;-74
2023/12/08 02:27:42;;;;;;;1.15;0.82;;;3.20;92.10;;;;;;5095863;28;20035;-74
2023/12/08 02:30:08;;;;;;;1.52;1.00;;;3.10;92.10;;;;;;5095732;28;20075;-75
2023/12/08 02:32:44;;;;;;;1.70;1.08;;;3.00;92.00;;;;;;5095580;28;20047;-74
2023/12/08 02:35:10;;;;;;;1.48;0.93;;;3.10;92.10;;;;;;5096947;28;20035;-75
2023/12/08 02:37:37;;;;;;;1.10;0.77;;;3.00;92.10;;;;;;5095386;28;20039;-75
2023/12/08 02:40:05;;;;;;;2.22;1.23;;;3.00;92.10;;;;;;5078994;28;20035;-75
2023/12/08 02:42:31;;;;;;;1.58;1.00;;;3.00;92.10;;;;;;5113949;28;20038;-75
2023/12/08 02:44:57;;;;;;;2.15;1.20;;;3.00;92.10;;;;;;5095179;28;20035;-75
2023/12/08 02:47:23;;;;;;;2.00;1.10;;;2.90;92.10;;;;;;5095109;28;20054;-75
2023/12/08 02:49:49;;;;;;;1.50;1.08;;;2.90;92.10;;;;;;5114361;28;20054;-75
2023/12/08 02:52:14;;;;;;;1.38;0.90;;;2.90;92.10;;;;;;5078431;28;20040;-75
2023/12/08 02:54:40;;;;;;;1.98;0.90;;;2.90;92.10;;;;;;5078601;28;20040;-75
2023/12/08 02:57:06;;;;;;;1.20;0.85;;;2.90;92.10;;;;;;5095387;28;20046;-75
2023/12/08 02:59:32;;;;;;;1.88;1.00;;;2.90;92.20;;;;;;5113517;28;20495;-75
2023/12/08 03:01:58;;;;;;;1.52;1.10;;;2.90;92.20;;;;;;5095854;28;20071;-75
2023/12/08 03:04:23;;;;;;;1.33;0.73;;;2.90;92.20;;;;;;5095153;28;20122;-75
2023/12/08 03:06:49;;;;;;;1.13;0.80;;;2.90;92.30;;;;;;5095170;28;20496;-75
2023/12/08 03:09:15;;;;;;;1.90;1.00;;;2.80;92.20;;;;;;5094919;28;20080;-76
2023/12/08 03:11:40;;;;;;;0.75;0.60;;;2.90;92.30;;;;;;5095469;28;20052;-75
2023/12/08 03:14:06;;;;;;;1.38;0.80;;;2.90;92.30;;;;;;5078145;28;20040;-75
2023/12/08 03:16:32;;;;;;;2.20;1.10;;;2.80;92.30;;;;;;5113883;28;20078;-75
2023/12/08 03:18:58;;;;;;;1.50;0.93;;;2.70;92.30;;;;;;5113603;28;20130;-76
2023/12/08 03:21:27;;;;;;;1.23;0.90;;;2.90;92.40;;;;;;5078121;28;20134;-75
2023/12/08 03:23:53;;;;;;;1.92;1.08;;;2.80;92.30;;;;;;5113043;28;20491;-75
2023/12/08 03:26:19;;;;;;;2.13;1.10;;;2.80;92.30;;;;;;5095215;28;20047;-75
2023/12/08 03:28:45;;;;;;;1.90;1.00;;;2.90;92.40;;;;;;5094650;28;20039;-75
2023/12/08 03:31:25;;;;;;;2.28;1.30;;;2.80;92.40;;;;;;5113173;28;20059;-75
2023/12/08 03:33:50;;;;;;;2.00;1.10;;;2.90;92.40;;;;;;5094711;28;20462;-75
2023/12/08 03:36:16;;;;;;;2.45;1.10;;;2.70;92.40;;;;;;5112888;28;20063;-75
2023/12/08 03:38:42;;;;;;;1.17;0.80;;;2.70;92.40;;;;;;5094520;28;20487;-76
2023/12/08 03:41:08;;;;;;;2.65;1.40;;;2.80;92.40;;;;;;5113391;28;20071;-76
2023/12/08 03:43:34;;;;;;;2.10;1.50;;;2.80;92.40;;;;;;5095149;28;20096;-75
2023/12/08 03:45:59;;;;;;;2.53;1.30;;;2.80;92.40;;;;;;5094618;28;20385;-76
2023/12/08 03:48:25;;;;;;;2.45;1.08;;;2.80;92.40;;;;;;5094536;28;20071;-75
2023/12/08 03:50:51;;;;;;;3.35;1.42;;;2.80;92.40;;;;;;5113042;28;20505;-75
2023/12/08 03:53:17;;;;;;;2.38;1.10;;;2.80;92.40;;;;;;5094277;28;20044;-75
2023/12/08 03:55:42;;;;;;;2.08;1.20;;;2.80;92.40;;;;;;5094389;28;20489;-75
2023/12/08 03:58:08;;;;;;;2.00;1.17;;;2.70;92.40;;;;;;5112345;28;20047;-75
2023/12/08 04:00:34;;;;;;;2.42;1.27;;;2.80;92.40;;;;;;5112743;28;20043;-76
2023/12/08 04:02:59;;;;;;;1.55;0.85;;;2.80;92.40;;;;;;5077275;28;20047;-75
2023/12/08 04:05:25;;;;;;;2.42;1.17;;;2.80;92.40;;;;;;5112453;28;20039;-75
2023/12/08 04:07:51;;;;;;;1.77;0.95;;;2.80;92.40;;;;;;5074856;28;20036;-75
2023/12/08 04:10:17;;;;;;;2.65;1.38;;;2.80;92.40;;;;;;5112821;28;20036;-75
2023/12/08 04:12:42;;;;;;;2.55;1.20;;;2.80;92.40;;;;;;5112259;28;20046;-75
2023/12/08 04:15:08;;;;;;;1.83;1.17;;;2.80;92.40;;;;;;5093988;28;20479;-75
2023/12/08 04:17:34;;;;;;;2.00;1.17;;;2.80;92.40;;;;;;5077928;28;20044;-75
2023/12/08 04:20:00;;;;;;;2.00;1.30;;;2.80;92.50;;;;;;5094266;28;20031;-75
2023/12/08 04:22:26;;;;;;;2.08;1.10;;;2.80;92.50;;;;;;5112095;28;20143;-75
2023/12/08 04:24:52;;;;;;;2.53;1.17;;;2.80;92.50;;;;;;5077187;28;20135;-75
2023/12/08 04:27:18;;;;;;;2.55;1.27;;;2.80;92.50;;;;;;5094623;28;20040;-75
2023/12/08 04:29:43;;;;;;;2.53;1.17;;;2.90;92.50;;;;;;5112387;28;20093;-75
2023/12/08 04:32:09;;;;;;;1.67;1.10;;;2.80;92.50;;;;;;5094116;28;20047;-75
2023/12/08 04:34:35;;;;;;;2.22;1.30;;;2.80;92.50;;;;;;5093654;28;20035;-75
2023/12/08 04:37:00;;;;;;;1.80;0.88;;;2.80;92.50;;;;;;5112180;28;20046;-75
2023/12/08 04:39:26;;;;;;;1.88;1.00;;;2.80;92.50;;;;;;5077096;28;20070;-76
2023/12/08 04:41:52;;;;;;;2.28;1.30;;;2.90;92.50;;;;;;5112245;28;20499;-75
2023/12/08 04:44:18;;;;;;;1.73;1.00;;;2.80;92.50;;;;;;5111907;28;20448;-75
2023/12/08 04:46:43;;;;;;;2.33;1.50;;;2.80;92.50;;;;;;5077205;28;20047;-75
2023/12/08 04:49:09;;;;;;;2.78;1.20;;;2.80;92.50;;;;;;5093680;28;20044;-75
2023/12/08 04:51:35;;;;;;;1.42;1.00;;;2.80;92.50;;;;;;5093584;28;20035;-76
2023/12/08 04:54:01;;;;;;;1.55;1.02;;;2.80;92.50;;;;;;5111953;28;20051;-75
2023/12/08 04:56:27;;;;;;;1.90;1.10;;;2.80;92.50;;;;;;5093732;28;20031;-75
2023/12/08 04:58:53;;;;;;;1.65;1.00;;;2.90;92.60;;;;;;5094244;28;20035;-76
2023/12/08 05:01:18;;;;;;;1.95;1.10;;;2.80;92.50;;;;;;5077134;28;20039;-75
2023/12/08 05:03:44;;;;;;;2.42;1.20;;;2.90;92.60;;;;;;5112367;28;20044;-75
2023/12/08 05:06:10;;;;;;;1.42;0.82;;;2.90;92.60;;;;;;5112517;28;20031;-74
2023/12/08 05:08:36;;;;;;;1.58;0.90;;;2.90;92.60;;;;;;5112069;28;20036;-75
2023/12/08 05:11:02;;;;;;;2.90;1.40;;;2.90;92.60;;;;;;5080227;28;20130;-74
2023/12/08 05:13:27;;;;;;;1.15;0.90;;;2.90;92.60;;;;;;5097117;28;20028;-74
2023/12/08 05:15:53;;;;;;;1.70;1.08;;;2.90;92.60;;;;;;5097393;28;20387;-75
2023/12/08 05:18:19;;;;;;;1.58;1.00;;;3.00;92.60;;;;;;5097489;28;20070;-74
2023/12/08 05:20:44;;;;;;;2.30;1.10;;;3.00;92.70;;;;;;5115961;28;20043;-74
2023/12/08 05:23:11;;;;;;;1.52;0.93;;;2.90;92.60;;;;;;5115745;28;20035;-75
2023/12/08 05:25:37;;;;;;;2.10;1.30;;;2.90;92.60;;;;;;5115216;28;20100;-75
2023/12/08 05:28:02;;;;;;;1.88;1.02;;;3.00;92.60;;;;;;5115338;28;20043;-75
2023/12/08 05:30:28;;;;;;;3.05;1.20;;;2.90;92.60;;;;;;5079902;28;20048;-75
2023/12/08 05:32:57;;;;;;;3.00;1.30;;;2.80;92.60;;;;;;5114717;28;20044;-75
2023/12/08 05:35:23;;;;;;;2.00;1.05;;;2.80;92.60;;;;;;5051685;28;20037;-75
2023/12/08 05:37:48;;;;;;;2.17;1.10;;;2.80;92.60;;;;;;5035551;28;20037;-75
2023/12/08 05:40:14;;;;;;;2.88;1.30;;;2.90;92.60;;;;;;5035666;28;20052;-74
2023/12/08 05:42:40;;;;;;;4.55;1.80;;;2.90;92.60;;;;;;5035535;28;20065;-75
2023/12/08 05:45:06;;;;;;;2.60;1.40;;;2.90;92.60;;;;;;5052064;28;20045;-75
2023/12/08 05:47:32;;;;;;;1.77;1.08;;;2.90;92.60;;;;;;5035491;28;20493;-75
2023/12/08 05:49:59;;;;;;;2.53;1.30;;;2.90;92.60;;;;;;5035077;28;20060;-75
2023/12/08 05:52:28;;;;;;;2.45;1.30;;;2.90;92.70;;;;;;5052103;28;20513;-75
2023/12/08 05:54:57;;;;;;;3.08;1.60;;;2.90;92.70;;;;;;5035304;28;20084;-75
2023/12/08 05:57:23;;;;;;;2.15;1.38;;;2.90;92.70;;;;;;5035526;28;20131;-75
2023/12/08 05:59:48;;;;;;;3.00;1.60;;;3.00;92.70;;;;;;5052336;28;20136;-75
2023/12/08 06:02:14;;;;;;;2.53;1.50;;;2.90;92.60;;;;;;5035364;28;20132;-74
2023/12/08 06:04:40;;;;;;;2.50;1.45;;;2.90;92.70;;;;;;5051865;28;20088;-74
2023/12/08 06:07:06;;;;;;;1.98;1.15;;;2.90;92.60;;;;;;5085570;28;20047;-75
2023/12/08 06:09:32;;;;;;;1.58;1.10;;;2.90;92.70;;;;;;5114936;28;20152;-75
2023/12/08 06:11:57;;;;;;;1.98;0.98;;;2.90;92.70;;;;;;5096044;28;20039;-75
2023/12/08 06:14:23;;;;;;;2.70;1.20;;;2.90;92.70;;;;;;5096109;28;20482;-75
2023/12/08 06:16:49;;;;;;;2.33;1.17;;;3.00;93.00;;;;;;5096024;28;20104;-75
2023/12/08 06:19:14;;;;;;;2.03;1.15;;;3.00;92.70;;;;;;5079062;28;20164;-75
2023/12/08 06:21:40;;;;;;;2.42;1.50;;;3.00;92.70;;;;;;5114193;28;20039;-74
2023/12/08 06:24:06;;;;;;;1.95;1.13;;;3.00;92.70;;;;;;5079195;28;20036;-75
2023/12/08 06:26:31;;;;;;;1.80;1.05;;;3.00;92.70;;;;;;5115828;28;20418;-75
2023/12/08 06:28:57;;;;;;;2.25;1.50;;;3.00;92.70;;;;;;5116555;28;20506;-74
2023/12/08 06:31:23;;;;;;;2.20;1.20;;;3.00;92.70;;;;;;5120419;28;20043;-75
2023/12/08 06:33:48;;;;;;;2.83;1.48;;;3.00;92.70;;;;;;5099483;28;20050;-75
2023/12/08 06:36:15;;;;;;;1.98;1.15;;;2.90;92.70;;;;;;5066000;28;20368;-73
2023/12/08 06:38:41;;;;;;;2.40;1.27;;;3.00;92.70;;;;;;5117512;28;20043;-74
2023/12/08 06:41:07;;;;;;;3.13;1.80;;;3.00;92.70;;;;;;5051876;28;20048;-74
2023/12/08 06:43:32;;;;;;;2.08;1.23;;;3.10;92.70;;;;;;5037898;28;20485;-74
2023/12/08 06:45:59;;;;;;;2.70;1.25;;;3.00;92.70;;;;;;5036345;28;20041;-74
2023/12/08 06:48:25;;;;;;;3.40;1.73;;;3.00;92.70;;;;;;5053250;28;20056;-74
2023/12/08 06:50:51;;;;;;;3.80;1.75;;;3.00;92.70;;;;;;5053260;28;20049;-74
2023/12/08 06:53:17;;;;;;;2.88;1.40;;;3.20;92.80;;;;;;5053652;28;20045;-74
2023/12/08 06:55:43;;;;;;;2.42;1.20;;;3.10;92.70;;;;;;5045756;28;20045;-75
2023/12/08 06:58:09;;;;;;;2.75;1.40;;;3.10;92.70;;;;;;5054162;28;20052;-75
2023/12/08 07:00:35;;;;;;;3.22;1.60;;;3.10;92.70;;;;;;5036653;28;20041;-75
2023/12/08 07:03:01;;;;;;;2.38;1.30;;;3.10;92.70;;;;;;5053227;28;20439;-74
2023/12/08 07:05:26;;;;;;;2.83;1.33;;;3.10;92.70;;;;;;5053568;28;20068;-74
2023/12/08 07:07:52;;;;;;;2.85;1.35;;;3.10;92.70;;;;;;5035213;28;20099;-74
2023/12/08 07:10:18;;;;;;;2.67;1.45;;;3.10;92.70;;;;;;5036515;28;20061;-72
2023/12/08 07:12:44;;;;;;;3.20;1.60;;;3.10;92.70;;;;;;5086114;28;20399;-74
2023/12/08 07:15:10;;;;;;;2.97;1.50;;;3.10;92.70;;;;;;5079248;28;20491;-74
2023/12/08 07:17:37;;;;;;;2.88;1.38;;;3.10;92.70;;;;;;5079217;28;20403;-74
2023/12/08 07:20:06;;;;;;;2.03;1.20;;;3.10;92.70;;;;;;5095923;28;20464;-74
2023/12/08 07:22:32;;;;;;;2.50;1.17;;;3.10;92.70;;;;;;5096261;28;20045;-74
2023/12/08 07:24:59;;;;;;;2.08;1.38;;;3.20;92.70;;;;;;5114636;28;20035;-74
2023/12/08 07:27:28;;;;;;;2.67;1.35;;;3.20;92.80;;;;;;5114332;28;20411;-74
2023/12/08 07:29:54;;;;;;;2.10;1.10;;;3.20;92.80;;;;;;5113963;28;20039;-74
2023/12/08 07:32:20;;;;;;;3.67;1.70;;;3.20;92.80;;;;;;5049700;28;20112;-73
2023/12/08 07:34:46;;;;;;;2.92;1.45;;;3.20;92.80;;;;;;5050857;28;20175;-73
2023/12/08 07:37:11;;;;;;;1.83;1.02;;;3.20;92.80;;;;;;5050595;28;20055;-74
2023/12/08 07:39:38;;;;;;;1.83;1.05;;;3.20;92.70;;;;;;5050522;28;20524;-73
2023/12/08 07:42:04;;;;;;;1.95;1.00;;;3.20;92.80;;;;;;5046652;28;20048;-73
2023/12/08 07:44:29;;;;;;;3.17;1.42;;;3.40;92.80;;;;;;5048472;28;20448;-73
2023/12/08 07:46:55;;;;;;;3.05;1.60;;;3.20;92.80;;;;;;5048026;28;20142;-73
2023/12/08 07:49:21;;;;;;;1.67;1.02;;;3.20;92.80;;;;;;5050746;28;20191;-72
2023/12/08 07:51:47;;;;;;;2.38;1.30;;;3.20;92.80;;;;;;5048272;28;20040;-72
2023/12/08 07:54:13;;;;;;;3.78;1.73;;;3.30;92.80;;;;;;5050606;28;20044;-72
2023/12/08 07:56:38;;;;;;;1.83;1.17;;;3.30;92.80;;;;;;5048036;28;20075;-72
2023/12/08 07:59:04;;;;;;;2.38;1.13;;;3.30;92.80;;;;;;5045645;28;20484;-73
2023/12/08 08:01:31;;;;;;;1.73;1.00;;;3.30;92.80;;;;;;5049795;28;20045;-73
2023/12/08 08:03:57;;;;;;;2.28;1.27;;;3.30;92.80;;;;;;5097993;28;20039;-74
2023/12/08 08:06:24;;;;;;;3.10;1.48;;;3.30;92.80;;;;;;5094650;28;20499;-73
2023/12/08 08:08:50;;;;;;;1.45;1.10;;;3.30;92.80;;;;;;5094590;28;20089;-74
2023/12/08 08:11:16;;;;;;;2.72;1.50;;;3.40;92.80;;;;;;5094839;28;20043;-73
2023/12/08 08:13:41;;;;;;;2.00;1.27;;;3.30;92.80;;;;;;5094443;28;20035;-73
2023/12/08 08:16:07;;;;;;;2.67;1.48;;;3.40;92.80;;;;;;5095382;28;20104;-73
2023/12/08 08:18:33;;;;;;;2.03;1.13;;;3.40;92.80;;;;;;5094477;28;20043;-73
2023/12/08 08:20:59;;;;;;;3.95;1.70;;;3.40;92.80;;;;;;5094672;28;20107;-73
2023/12/08 08:23:25;;;;;;;2.65;1.42;;;3.40;92.80;;;;;;5094438;28;20044;-73
2023/12/08 08:25:51;;;;;;;2.78;1.27;;;3.40;92.80;;;;;;5049483;28;20048;-73
2023/12/08 08:28:18;;;;;;;2.35;1.13;;;3.40;92.80;;;;;;5049623;28;20493;-73
2023/12/08 08:30:44;;;;;;;2.20;1.25;;;3.50;92.80;;;;;;5049791;28;20044;-74
2023/12/08 08:33:11;;;;;;;3.05;1.65;;;3.50;92.80;;;;;;5033350;28;20412;-73
2023/12/08 08:35:37;;;;;;;4.07;1.98;;;3.50;92.80;;;;;;5030697;28;20073;-74
2023/12/08 08:38:03;;;;;;;1.73;1.10;;;3.50;92.80;;;;;;5033072;28;20139;-73
2023/12/08 08:40:31;;;;;;;3.58;1.27;;;3.50;92.80;;;;;;5049429;28;20049;-73
2023/12/08 08:42:57;;;;;;;3.00;1.50;;;3.60;92.80;;;;;;5049887;28;20544;-71
2023/12/08 08:45:22;;;;;;;1.90;1.15;;;3.50;92.80;;;;;;5035719;28;20055;-72
2023/12/08 08:47:48;;;;;;;3.05;1.45;;;3.60;92.80;;;;;;5034021;28;20049;-73
2023/12/08 08:50:14;;;;;;;2.58;1.08;;;3.60;92.80;;;;;;5053109;28;20076;-73
2023/12/08 08:52:40;;;;;;;2.10;1.15;;;3.60;92.80;;;;;;5053372;28;20065;-72
2023/12/08 08:55:06;;;;;;;2.20;1.35;;;3.60;92.80;;;;;;5036839;28;20511;-74
2023/12/08 08:57:32;;;;;;;2.33;1.05;;;3.70;92.80;;;;;;5103090;28;20036;-74
2023/12/08 08:59:57;;;;;;;2.53;1.48;;;3.70;92.80;;;;;;5080543;28;20123;-73
2023/12/08 09:02:23;;;;;;;1.75;1.15;;;3.80;93.00;;;;;;5080249;28;20491;-73
2023/12/08 09:04:49;;;;;;;2.85;1.15;;;3.70;92.80;;;;;;5116033;28;20522;-73
2023/12/08 09:07:14;;;;;;;4.20;1.65;;;3.80;92.80;;;;;;5097690;28;20514;-73
2023/12/08 09:09:40;;;;;;;2.90;1.55;;;3.80;92.80;;;;;;5097005;28;20047;-72
2023/12/08 09:12:07;;;;;;;1.85;0.95;;;3.90;92.80;;;;;;5097162;28;20046;-73
2023/12/08 09:14:33;;;;;;;2.67;1.45;;;3.80;92.80;;;;;;5097144;28;20060;-73
2023/12/08 09:17:05;;;;;;;2.47;1.15;;;3.90;92.80;;;;;;5115963;28;20035;-73
2023/12/08 09:19:32;;;;;;;2.33;1.30;;;3.80;92.80;;;;;;5098322;28;20048;-72
2023/12/08 09:21:58;;;;;;;4.18;1.95;;;3.90;92.80;;;;;;5097688;28;20189;-72
2023/12/08 09:24:25;;;;;;;2.53;1.38;;;4.00;92.80;;;;;;5097052;28;20122;-72
2023/12/08 09:26:53;;;;;;;3.45;1.67;;;3.90;92.80;;;;;;5096642;28;20044;-73
2023/12/08 09:29:20;;;;;;;3.38;1.75;;;3.90;92.70;;;;;;5115452;28;20118;-72
2023/12/08 09:31:46;;;;;;;2.33;1.33;;;4.00;92.80;;;;;;5095031;28;20494;-72
2023/12/08 09:34:11;;;;;;;3.55;1.45;;;4.00;92.80;;;;;;5115215;28;20084;-72
2023/12/08 09:36:37;;;;;;;3.22;1.58;;;3.90;92.70;;;;;;5097242;28;20059;-73
2023/12/08 09:39:04;;;;;;;4.18;1.90;;;4.00;92.80;;;;;;5115151;28;20047;-73
2023/12/08 09:41:31;;;;;;;4.80;2.13;;;4.10;92.80;;;;;;5115469;28;20641;-73
2023/12/08 09:44:05;;;;;;;3.63;1.83;;;4.00;92.80;;;;;;5097363;28;20126;-73
2023/12/08 09:46:34;;;;;;;4.43;2.03;;;4.10;92.80;;;;;;5114730;28;20050;-73
2023/12/08 09:49:01;;;;;;;3.42;1.80;;;4.10;92.80;;;;;;5115401;28;20085;-73
2023/12/08 09:51:28;;;;;;;3.60;1.63;;;4.10;92.80;;;;;;5079896;28;20066;-73
2023/12/08 09:53:57;;;;;;;4.03;1.77;;;4.10;92.80;;;;;;5114522;28;20475;-73
2023/12/08 09:56:26;;;;;;;3.78;1.95;;;4.20;92.80;;;;;;5114165;28;20036;-73
2023/12/08 09:58:52;;;;;;;4.28;1.95;;;4.20;92.80;;;;;;5096557;28;20564;-73
2023/12/08 10:01:18;;;;;;;5.65;2.15;;;4.20;92.80;;;;;;5096446;28;20048;-73
2023/12/08 10:03:44;;;;;;;5.13;2.65;;;4.20;92.80;;;;;;5114881;28;20050;-73
2023/12/08 10:06:10;;;;;;;3.22;1.85;;;4.30;92.80;;;;;;5114527;28;20039;-73
2023/12/08 10:08:37;;;;;;;4.10;1.83;;;4.30;92.80;;;;;;5096764;28;20040;-73
2023/12/08 10:11:05;;;;;;;3.97;1.85;;;4.30;92.80;;;;;;5114542;28;20040;-74
2023/12/08 10:13:31;;;;;;;3.47;1.90;;;4.30;93.10;;;;;;5095987;28;20055;-73
2023/12/08 10:15:58;;;;;;;5.93;2.42;;;4.40;92.80;;;;;;5096340;28;20130;-73
2023/12/08 10:18:26;;;;;;;3.92;1.85;;;4.40;92.80;;;;;;5095995;28;20073;-73
2023/12/08 10:21:11;;;;;;;5.20;2.33;;;4.40;92.80;;;;;;5114601;28;20046;-73
2023/12/08 10:23:37;;;;;;;4.38;2.17;;;4.40;92.80;;;;;;5099026;28;20065;-73
2023/12/08 10:26:04;;;;;;;5.05;2.20;;;4.50;92.90;;;;;;5095977;28;20494;-72
2023/12/08 10:28:33;;;;;;;4.53;2.05;;;4.50;92.80;;;;;;5114185;28;20054;-73
2023/12/08 10:30:59;;;;;;;2.92;1.73;;;4.50;92.90;;;;;;5114025;28;20048;-73
2023/12/08 10:33:25;;;;;;;5.07;1.75;;;4.50;92.80;;;;;;5114554;28;20036;-73
2023/12/08 10:35:51;;;;;;;6.80;2.20;;;4.60;92.90;;;;;;5114689;28;20063;-73
2023/12/08 10:38:18;;;;;;;3.83;1.90;;;4.60;92.90;;;;;;5096034;28;20491;-73
2023/12/08 10:40:48;;;;;;;3.75;1.92;;;4.70;92.90;;;;;;5095760;28;20039;-72
2023/12/08 10:43:22;;;;;;;4.82;2.22;;;4.60;92.90;;;;;;5114138;28;20036;-73
2023/12/08 10:45:50;;;;;;;5.50;2.20;;;4.70;92.90;;;;;;5114345;28;20414;-72
2023/12/08 10:48:20;;;;;;;4.95;2.40;;;4.70;92.90;;;;;;5096469;28;20040;-72
2023/12/08 10:50:49;;;;;;;4.63;2.15;;;4.70;92.90;;;;;;5113824;28;20070;-73
2023/12/08 10:53:17;;;;;;;4.18;2.10;;;4.80;92.90;;;;;;5095812;28;20062;-74
2023/12/08 10:55:44;;;;;;;2.95;1.70;;;4.80;92.90;;;;;;5095680;28;20038;-72
2023/12/08 10:58:14;;;;;;;3.70;1.80;;;4.80;92.90;;;;;;5113652;28;20043;-73
2023/12/08 11:00:41;;;;;;;6.43;2.27;;;4.80;92.90;;;;;;5113659;28;20096;-73
2023/12/08 11:03:09;;;;;;;4.80;2.10;;;4.80;92.90;;;;;;5095403;28;20304;-73
2023/12/08 11:05:45;;;;;;;5.85;2.65;;;4.90;92.90;;;;;;5113481;28;20038;-74
2023/12/08 11:08:12;;;;;;;6.63;2.75;;;4.90;92.90;;;;;;5092901;28;20495;-73
2023/12/08 11:10:42;;;;;;;8.68;3.10;;;4.90;92.90;;;;;;5113150;28;20560;-73
2023/12/08 11:13:12;;;;;;;7.05;2.58;;;4.90;92.90;;;;;;5079153;28;20028;-72
2023/12/08 11:15:41;;;;;;;7.25;2.80;;;5.00;92.90;;;;;;5095184;28;20050;-73
2023/12/08 11:18:21;;;;;;;6.63;3.00;;;5.00;92.90;;;;;;5095246;28;20035;-73
2023/12/08 11:20:47;;;;;;;6.57;2.65;;;5.00;92.90;;;;;;5113587;28;20047;-73
2023/12/08 11:23:13;;;;;;;7.28;2.80;;;5.00;92.90;;;;;;5095102;28;20119;-74
2023/12/08 11:25:47;;;;;;;8.40;3.15;;;5.00;92.90;;;;;;5095056;28;20605;-74
2023/12/08 11:28:25;;;;;;;6.88;2.78;;;5.10;92.90;;;;;;5113915;28;20043;-73
2023/12/08 11:30:59;;;;;;;8.73;3.38;;;5.10;92.90;;;;;;5034027;28;20098;-74
2023/12/08 11:33:42;;;;;;;4.15;2.10;;;5.20;92.90;;;;;;5033790;28;20063;-73
2023/12/08 11:36:10;;;;;;;6.07;2.20;;;5.20;92.90;;;;;;5032586;28;20032;-74
2023/12/08 11:38:37;;;;;;;5.40;2.58;;;5.30;92.90;;;;;;5070091;28;20047;-74
2023/12/08 11:41:12;;;;;;;5.68;2.30;;;5.30;92.90;;;;;;5070155;28;20095;-73
2023/12/08 11:43:39;;;;;;;5.70;2.22;;;5.40;92.90;;;;;;5053604;28;20037;-74
2023/12/08 11:46:05;;;;;;;6.90;2.90;;;5.40;92.90;;;;;;5053158;28;20603;-74
2023/12/08 11:48:31;;;;;;;7.55;2.83;;;5.50;92.90;;;;;;5070829;28;20135;-74
2023/12/08 11:51:01;;;;;;;5.57;2.45;;;5.50;92.90;;;;;;5053520;28;20052;-73
2023/12/08 11:53:27;;;;;;;7.90;2.63;;;5.50;92.90;;;;;;5037142;28;20150;-73
2023/12/08 11:55:57;;;;;;;9.80;3.40;;;5.50;92.90;;;;;;5037890;28;20064;-72
2023/12/08 11:58:33;;;;;;;6.30;2.60;;;5.60;92.90;;;;;;5054840;28;20072;-72
2023/12/08 12:01:05;;;;;;;7.25;2.55;;;5.60;92.90;;;;;;5057367;28;20117;-73
2023/12/08 12:03:31;;;;;;;8.75;3.42;;;5.60;92.90;;;;;;5093519;28;20040;-73
2023/12/08 12:05:57;;;;;;;6.70;2.88;;;5.70;92.90;;;;;;5108903;27;20508;-73
2023/12/08 12:08:26;;;;;;;7.70;3.10;;;5.70;92.90;;;;;;5114921;27;20054;-72
2023/12/08 12:10:56;;;;;;;7.63;3.33;;;5.70;92.90;;;;;;5115011;27;20043;-74
2023/12/08 12:13:28;;;;;;;6.07;2.60;;;5.80;92.90;;;;;;5094531;28;20055;-73
2023/12/08 12:15:57;;;;;;;8.02;3.15;;;5.70;92.90;;;;;;5094445;28;20084;-75
2023/12/08 12:18:23;;;;;;;6.63;3.30;;;5.80;92.90;;;;;;5094691;28;20035;-73
2023/12/08 12:20:49;;;;;;;8.15;3.70;;;5.80;92.90;;;;;;5094552;28;20071;-74
2023/12/08 12:23:16;;;;;;;8.73;3.65;;;5.80;93.20;;;;;;5111290;28;20051;-73
2023/12/08 12:25:42;;;;;;;7.88;3.20;;;5.90;92.90;;;;;;5111227;28;20039;-74
2023/12/08 12:28:08;;;;;;;8.52;3.00;;;5.90;92.90;;;;;;5111406;28;20133;-73
2023/12/08 12:30:48;;;;;;;6.60;3.03;;;6.00;92.90;;;;;;5112358;28;20036;-74
2023/12/08 12:33:14;;;;;;;6.50;2.72;;;6.00;92.90;;;;;;5093238;28;20046;-73
2023/12/08 12:35:50;;;;;;;7.43;3.15;;;6.10;92.90;;;;;;5094231;28;20039;-74
2023/12/08 12:41:27;;;;;;;;;;;6.10;92.90;;;;;;5095917;28;20548;-74
2023/12/08 12:44:22;;;;;;;7.57;3.08;;;6.30;92.90;;;;;;5133351;27;19911;-74
2023/12/08 12:46:51;;;;;;;6.38;2.75;;;6.20;92.80;;;;;;5110419;28;20069;-74
2023/12/08 12:53:04;;;;;;;7.80;2.80;;;6.30;92.80;;;;;;5069902;28;20533;-73
2023/12/08 12:55:31;;;;;;;6.53;2.80;;;6.50;92.90;;;;;;5069900;28;20113;-73
2023/12/08 12:58:27;;;;;;;6.00;2.78;;;6.40;92.80;;;;;;5068489;28;20126;-73
2023/12/08 13:00:53;;;;;;;7.40;2.70;;;6.40;92.90;;;;;;5069758;28;20105;-74
2023/12/08 13:03:20;;;;;;;5.35;2.25;;;6.50;93.10;;;;;;5067073;28;20179;-73